createdAt,value
2017-08-17T00:01:57.410Z,24.66
2017-08-17T00:04:24.934Z,24.64
2017-08-17T00:06:52.483Z,24.57
2017-08-17T00:09:20.000Z,24.61
2017-08-17T00:11:47.548Z,24.60
2017-08-17T00:14:15.070Z,24.59
2017-08-17T00:16:42.643Z,24.63
2017-08-17T00:19:10.195Z,24.62
2017-08-17T00:21:37.713Z,24.59
2017-08-17T00:24:05.264Z,24.61
2017-08-17T00:26:32.781Z,24.57
2017-08-17T00:29:00.339Z,24.55
2017-08-17T00:31:27.878Z,24.55
2017-08-17T00:33:55.397Z,24.51
2017-08-17T00:36:22.950Z,24.52
2017-08-17T00:38:50.581Z,24.57
2017-08-17T00:41:18.140Z,24.53
2017-08-17T00:43:45.657Z,24.53
2017-08-17T00:46:13.214Z,24.54
2017-08-17T00:48:40.736Z,24.52
2017-08-17T00:51:08.254Z,24.50
2017-08-17T00:53:35.809Z,24.49
2017-08-17T00:56:03.320Z,24.49
2017-08-17T00:58:30.954Z,24.49
2017-08-17T01:00:58.470Z,24.50
2017-08-17T01:03:26.020Z,24.45
2017-08-17T01:05:53.541Z,24.44
2017-08-17T01:08:21.063Z,24.38
2017-08-17T01:10:48.618Z,24.44
2017-08-17T01:13:16.138Z,24.43
2017-08-17T01:15:43.685Z,24.40
2017-08-17T01:18:11.210Z,24.41
2017-08-17T01:20:38.769Z,24.40
2017-08-17T01:23:06.283Z,24.33
2017-08-17T01:25:33.862Z,24.23
2017-08-17T01:28:01.417Z,24.24
2017-08-17T01:30:28.934Z,24.30
2017-08-17T01:32:56.498Z,24.27
2017-08-17T01:35:24.036Z,24.36
2017-08-17T01:37:51.611Z,24.37
2017-08-17T01:40:19.124Z,24.30
2017-08-17T01:42:46.638Z,24.27
2017-08-17T01:45:14.189Z,24.28
2017-08-17T01:47:41.738Z,24.29
2017-08-17T01:50:09.313Z,24.30
2017-08-17T01:52:36.862Z,24.31
2017-08-17T01:55:04.445Z,24.27
2017-08-17T01:57:31.969Z,24.32
2017-08-17T01:59:59.487Z,24.35
2017-08-17T02:02:27.054Z,24.26
2017-08-17T02:04:54.581Z,24.23
2017-08-17T02:07:22.140Z,24.27
2017-08-17T02:09:49.695Z,24.22
2017-08-17T02:12:17.257Z,24.21
2017-08-17T02:14:44.798Z,24.26
2017-08-17T02:17:12.315Z,24.19
2017-08-17T02:19:39.877Z,24.21
2017-08-17T02:22:07.406Z,24.15
2017-08-17T02:24:34.953Z,24.12
2017-08-17T02:27:02.494Z,24.11
2017-08-17T02:29:30.061Z,24.12
2017-08-17T02:31:57.574Z,24.09
2017-08-17T02:34:25.106Z,24.11
2017-08-17T02:36:52.665Z,24.04
2017-08-17T02:39:20.184Z,24.02
2017-08-17T02:41:47.747Z,24.04
2017-08-17T02:44:15.371Z,24.01
2017-08-17T02:46:43.194Z,24.06
2017-08-17T02:49:10.750Z,24.03
2017-08-17T02:51:38.259Z,23.96
2017-08-17T02:54:05.821Z,24.02
2017-08-17T02:56:33.338Z,24.00
2017-08-17T02:59:00.860Z,23.96
2017-08-17T03:01:28.421Z,23.92
2017-08-17T03:03:55.949Z,23.88
2017-08-17T03:06:23.530Z,23.87
2017-08-17T03:08:51.037Z,23.88
2017-08-17T03:11:18.549Z,23.87
2017-08-17T03:13:47.036Z,23.84
2017-08-17T03:16:14.558Z,23.88
2017-08-17T03:18:42.170Z,23.84
2017-08-17T03:21:09.709Z,23.82
2017-08-17T03:23:37.294Z,23.82
2017-08-17T03:26:04.817Z,23.85
2017-08-17T03:28:32.357Z,23.83
2017-08-17T03:30:59.924Z,23.85
2017-08-17T03:33:27.463Z,23.75
2017-08-17T03:35:55.029Z,23.75
2017-08-17T03:38:22.562Z,23.74
2017-08-17T03:40:50.116Z,23.79
2017-08-17T03:43:17.647Z,23.75
2017-08-17T03:45:45.172Z,23.71
2017-08-17T03:48:12.731Z,23.69
2017-08-17T03:50:40.246Z,23.76
2017-08-17T03:53:07.797Z,23.72
2017-08-17T03:55:35.328Z,23.68
2017-08-17T03:58:02.921Z,23.74
2017-08-17T04:00:30.477Z,23.74
2017-08-17T04:02:57.999Z,23.67
2017-08-17T04:05:25.552Z,23.74
2017-08-17T04:07:53.079Z,23.69
2017-08-17T04:10:20.650Z,23.68
2017-08-17T04:12:48.177Z,23.67
2017-08-17T04:15:15.694Z,23.69
2017-08-17T04:17:43.243Z,23.63
2017-08-17T04:20:10.856Z,23.62
2017-08-17T04:22:38.408Z,23.60
2017-08-17T04:25:05.918Z,23.59
2017-08-17T04:27:33.482Z,23.63
2017-08-17T04:30:00.997Z,23.57
2017-08-17T04:32:28.515Z,23.54
2017-08-17T04:34:56.079Z,23.57
2017-08-17T04:37:23.594Z,23.70
2017-08-17T04:39:51.158Z,23.69
2017-08-17T04:42:18.675Z,23.72
2017-08-17T04:44:46.349Z,23.72
2017-08-17T04:47:13.870Z,23.75
2017-08-17T04:49:41.385Z,23.72
2017-08-17T04:52:12.304Z,23.73
2017-08-17T04:54:39.833Z,23.75
2017-08-17T04:57:24.758Z,23.86
2017-08-17T04:59:52.283Z,23.89
2017-08-17T05:02:20.691Z,23.95
2017-08-17T05:04:48.228Z,23.92
2017-08-17T05:07:15.763Z,23.91
2017-08-17T05:09:43.314Z,23.90
2017-08-17T05:12:10.834Z,23.91
2017-08-17T05:14:38.386Z,23.92
2017-08-17T05:17:05.914Z,23.97
2017-08-17T05:19:33.587Z,23.95
2017-08-17T05:22:01.108Z,23.97
2017-08-17T05:24:28.708Z,23.98
2017-08-17T05:26:56.266Z,23.98
2017-08-17T05:29:23.792Z,23.98
2017-08-17T05:31:51.364Z,24.03
2017-08-17T05:34:18.882Z,24.02
2017-08-17T05:36:46.396Z,24.02
2017-08-17T05:39:13.943Z,24.03
2017-08-17T05:41:41.462Z,24.01
2017-08-17T05:44:09.042Z,24.06
2017-08-17T05:46:36.557Z,24.05
2017-08-17T05:49:04.073Z,24.06
2017-08-17T05:51:31.627Z,24.05
2017-08-17T05:53:59.150Z,24.04
2017-08-17T05:56:26.722Z,24.08
2017-08-17T05:58:54.248Z,24.07
2017-08-17T06:01:21.771Z,24.07
2017-08-17T06:03:49.317Z,24.09
2017-08-17T06:06:16.833Z,24.11
2017-08-17T06:08:44.380Z,24.07
2017-08-17T06:11:11.906Z,24.11
2017-08-17T06:13:39.470Z,24.08
2017-08-17T06:16:06.989Z,24.09
2017-08-17T06:18:34.504Z,24.07
2017-08-17T06:21:02.057Z,24.08
2017-08-17T06:23:29.581Z,24.12
2017-08-17T06:25:57.134Z,24.10
2017-08-17T06:28:24.650Z,24.13
2017-08-17T06:30:52.207Z,24.12
2017-08-17T06:33:19.724Z,24.14
2017-08-17T06:35:47.237Z,24.13
2017-08-17T06:38:14.791Z,24.12
2017-08-17T06:40:42.312Z,24.15
2017-08-17T06:43:09.893Z,24.14
2017-08-17T06:45:37.531Z,24.13
2017-08-17T06:48:05.085Z,24.14
2017-08-17T06:50:32.631Z,24.15
2017-08-17T06:53:01.778Z,24.17
2017-08-17T06:55:30.352Z,24.19
2017-08-17T06:57:59.055Z,24.15
2017-08-17T07:00:27.670Z,24.17
2017-08-17T07:02:56.444Z,24.17
2017-08-17T07:05:25.019Z,24.16
2017-08-17T07:07:53.194Z,24.20
2017-08-17T07:10:22.278Z,24.18
2017-08-17T07:12:51.361Z,24.21
2017-08-17T07:15:20.359Z,24.20
2017-08-17T07:17:49.267Z,24.21
2017-08-17T07:20:18.234Z,24.20
2017-08-17T07:22:46.224Z,24.19
2017-08-17T07:25:15.360Z,24.25
2017-08-17T07:27:44.185Z,24.21
2017-08-17T07:30:13.179Z,24.22
2017-08-17T07:32:42.246Z,24.20
2017-08-17T07:35:10.084Z,24.22
2017-08-17T07:37:39.067Z,24.22
2017-08-17T07:40:07.122Z,24.26
2017-08-17T07:42:35.901Z,24.22
2017-08-17T07:45:03.762Z,24.24
2017-08-17T07:47:32.206Z,24.21
2017-08-17T07:50:00.745Z,24.24
2017-08-17T07:52:29.722Z,24.23
2017-08-17T07:54:58.882Z,24.20
2017-08-17T07:57:27.325Z,24.23
2017-08-17T07:59:56.186Z,24.22
2017-08-17T08:02:25.154Z,24.27
2017-08-17T08:04:53.444Z,24.27
2017-08-17T08:07:22.039Z,24.27
2017-08-17T08:09:50.518Z,24.26
2017-08-17T08:12:19.276Z,24.27
2017-08-17T08:14:48.123Z,24.29
2017-08-17T08:17:15.674Z,24.27
2017-08-17T08:19:43.188Z,24.29
2017-08-17T08:22:10.780Z,24.26
2017-08-17T08:24:38.300Z,24.30
2017-08-17T08:27:05.817Z,24.31
2017-08-17T08:29:33.366Z,24.30
2017-08-17T08:32:00.879Z,24.32
2017-08-17T08:34:29.615Z,24.32
2017-08-17T08:36:58.082Z,24.32
2017-08-17T08:39:27.147Z,24.34
2017-08-17T08:41:55.895Z,24.30
2017-08-17T08:44:24.924Z,24.34
2017-08-17T08:46:53.794Z,24.35
2017-08-17T08:49:22.573Z,24.35
2017-08-17T08:51:50.960Z,24.36
2017-08-17T08:54:20.217Z,24.35
2017-08-17T08:56:49.305Z,24.37
2017-08-17T08:59:18.116Z,24.38
2017-08-17T09:01:46.863Z,24.37
2017-08-17T09:04:15.727Z,24.39
2017-08-17T09:06:44.694Z,24.39
2017-08-17T09:09:12.583Z,24.40
2017-08-17T09:11:41.494Z,24.39
2017-08-17T09:14:10.157Z,24.40
2017-08-17T09:16:39.092Z,24.38
2017-08-17T09:19:07.787Z,24.41
2017-08-17T09:21:36.769Z,24.42
2017-08-17T09:24:05.321Z,24.42
2017-08-17T09:26:32.870Z,24.42
2017-08-17T09:29:00.485Z,24.35
2017-08-17T09:31:28.077Z,24.42
2017-08-17T09:33:55.635Z,24.43
2017-08-17T09:36:23.200Z,24.43
2017-08-17T09:38:50.751Z,24.47
2017-08-17T09:41:18.270Z,24.46
2017-08-17T09:43:45.877Z,24.45
2017-08-17T09:46:13.434Z,24.45
2017-08-17T09:48:40.976Z,24.47
2017-08-17T09:51:08.516Z,24.45
2017-08-17T09:53:36.033Z,24.47
2017-08-17T09:56:03.627Z,24.48
2017-08-17T09:58:31.185Z,24.48
2017-08-17T10:00:58.761Z,24.49
2017-08-17T10:03:26.277Z,24.48
2017-08-17T10:05:53.792Z,24.50
2017-08-17T10:08:21.344Z,24.49
2017-08-17T10:10:48.866Z,24.50
2017-08-17T10:13:16.422Z,24.47
2017-08-17T10:15:43.950Z,24.51
2017-08-17T10:18:11.501Z,24.49
2017-08-17T10:20:39.021Z,24.52
2017-08-17T10:23:06.542Z,24.53
2017-08-17T10:25:34.093Z,24.54
2017-08-17T10:28:01.610Z,24.54
2017-08-17T10:30:29.166Z,24.56
2017-08-17T10:32:56.708Z,24.50
2017-08-17T10:35:24.269Z,24.55
2017-08-17T10:37:51.788Z,24.57
2017-08-17T10:40:19.307Z,24.59
2017-08-17T10:42:46.859Z,24.57
2017-08-17T10:45:14.377Z,24.56
2017-08-17T10:47:41.947Z,24.57
2017-08-17T10:50:09.460Z,24.58
2017-08-17T10:52:37.026Z,24.56
2017-08-17T10:55:04.544Z,24.57
2017-08-17T10:57:32.062Z,24.59
2017-08-17T10:59:59.606Z,24.57
2017-08-17T11:02:27.122Z,24.60
2017-08-17T11:04:54.672Z,24.62
2017-08-17T11:07:22.284Z,24.62
2017-08-17T11:09:49.846Z,24.58
2017-08-17T11:12:17.369Z,24.65
2017-08-17T11:14:44.885Z,24.65
2017-08-17T11:17:12.438Z,24.64
2017-08-17T11:19:39.953Z,24.66
2017-08-17T11:22:07.541Z,24.65
2017-08-17T11:24:35.061Z,24.65
2017-08-17T11:27:02.651Z,24.66
2017-08-17T11:29:30.194Z,24.68
2017-08-17T11:31:57.781Z,24.68
2017-08-17T11:34:25.332Z,24.68
2017-08-17T11:36:52.900Z,24.70
2017-08-17T11:39:20.458Z,24.72
2017-08-17T11:41:47.977Z,24.70
2017-08-17T11:44:15.550Z,24.70
2017-08-17T11:46:43.064Z,24.73
2017-08-17T11:49:10.581Z,24.74
2017-08-17T11:51:38.158Z,24.75
2017-08-17T11:54:05.676Z,24.73
2017-08-17T11:56:33.276Z,24.75
2017-08-17T11:59:00.836Z,24.76
2017-08-17T12:01:28.349Z,24.77
2017-08-17T12:03:55.901Z,24.77
2017-08-17T12:06:23.516Z,24.78
2017-08-17T12:08:51.073Z,24.77
2017-08-17T12:11:18.636Z,24.79
2017-08-17T12:13:46.156Z,24.79
2017-08-17T12:16:13.709Z,24.80
2017-08-17T12:18:41.315Z,24.79
2017-08-17T12:21:08.938Z,24.81
2017-08-17T12:23:36.531Z,24.81
2017-08-17T12:26:04.098Z,24.81
2017-08-17T12:28:31.656Z,24.80
2017-08-17T12:30:59.173Z,24.83
2017-08-17T12:33:26.733Z,24.84
2017-08-17T12:35:54.245Z,24.83
2017-08-17T12:38:21.791Z,24.84
2017-08-17T12:40:49.352Z,24.85
2017-08-17T12:43:16.917Z,24.85
2017-08-17T12:45:44.473Z,24.85
2017-08-17T12:48:12.151Z,24.87
2017-08-17T12:50:39.706Z,24.87
2017-08-17T12:53:07.217Z,24.88
2017-08-17T12:55:34.787Z,24.87
2017-08-17T12:58:02.313Z,24.88
2017-08-17T13:00:29.877Z,24.88
2017-08-17T13:02:57.393Z,24.89
2017-08-17T13:05:24.950Z,24.89
2017-08-17T13:07:52.510Z,24.90
2017-08-17T13:10:20.028Z,24.90
2017-08-17T13:12:47.575Z,24.89
2017-08-17T13:15:15.104Z,24.91
2017-08-17T13:17:42.722Z,24.91
2017-08-17T13:20:10.240Z,24.92
2017-08-17T13:22:37.750Z,24.91
2017-08-17T13:25:05.328Z,24.93
2017-08-17T13:27:32.854Z,24.90
2017-08-17T13:30:00.455Z,24.93
2017-08-17T13:32:27.980Z,24.92
2017-08-17T13:34:55.505Z,24.95
2017-08-17T13:37:23.048Z,24.93
2017-08-17T13:39:50.587Z,24.96
2017-08-17T13:42:18.165Z,24.96
2017-08-17T13:44:45.683Z,24.95
2017-08-17T13:47:13.202Z,24.96
2017-08-17T13:49:40.756Z,24.98
2017-08-17T13:52:08.270Z,24.97
2017-08-17T13:54:35.844Z,24.98
2017-08-17T13:57:03.361Z,24.98
2017-08-17T13:59:30.967Z,24.98
2017-08-17T14:01:58.524Z,24.99
2017-08-17T14:04:26.048Z,25.00
2017-08-17T14:06:53.643Z,25.01
2017-08-17T14:09:21.176Z,25.00
2017-08-17T14:11:48.701Z,25.01
2017-08-17T14:14:16.252Z,25.02
2017-08-17T14:16:43.767Z,25.02
2017-08-17T14:19:11.316Z,25.03
2017-08-17T14:21:38.830Z,25.02
2017-08-17T14:24:06.460Z,25.01
2017-08-17T14:26:33.978Z,25.02
2017-08-17T14:29:01.493Z,25.03
2017-08-17T14:31:29.053Z,25.03
2017-08-17T14:33:56.600Z,25.05
2017-08-17T14:36:24.161Z,25.05
2017-08-17T14:38:53.717Z,25.02
2017-08-17T14:41:21.280Z,25.06
2017-08-17T14:43:48.804Z,25.07
2017-08-17T14:46:16.319Z,25.08
2017-08-17T14:48:43.870Z,25.08
2017-08-17T14:51:11.389Z,25.08
2017-08-17T14:53:38.936Z,25.09
2017-08-17T14:56:06.477Z,25.10
2017-08-17T14:58:34.027Z,25.09
2017-08-17T15:01:01.545Z,25.10
2017-08-17T15:03:29.062Z,25.10
2017-08-17T15:05:56.613Z,25.11
2017-08-17T15:08:24.138Z,25.10
2017-08-17T15:10:51.685Z,25.12
2017-08-17T15:13:19.273Z,25.11
2017-08-17T15:15:46.847Z,25.11
2017-08-17T15:18:14.368Z,25.12
2017-08-17T15:20:41.884Z,25.12
2017-08-17T15:23:09.444Z,25.12
2017-08-17T15:25:36.960Z,25.12
2017-08-17T15:28:04.520Z,25.13
2017-08-17T15:30:32.047Z,25.14
2017-08-17T15:32:59.624Z,25.12
2017-08-17T15:35:27.153Z,25.13
2017-08-17T15:37:54.673Z,25.14
2017-08-17T15:40:22.226Z,25.15
2017-08-17T15:42:49.742Z,25.15
2017-08-17T15:45:17.318Z,25.15
2017-08-17T15:47:44.833Z,25.14
2017-08-17T15:50:12.345Z,25.15
2017-08-17T15:52:39.893Z,25.16
2017-08-17T15:55:07.412Z,25.17
2017-08-17T15:57:34.969Z,25.17
2017-08-17T16:00:02.484Z,25.17
2017-08-17T16:02:30.051Z,25.18
2017-08-17T16:04:57.567Z,25.17
2017-08-17T16:07:25.081Z,25.17
2017-08-17T16:09:52.631Z,25.18
2017-08-17T16:12:20.150Z,25.18
2017-08-17T16:14:47.698Z,25.18
2017-08-17T16:17:15.213Z,25.18
2017-08-17T16:19:42.786Z,25.19
2017-08-17T16:22:10.298Z,25.19
2017-08-17T16:24:37.818Z,25.20
2017-08-17T16:27:05.386Z,25.20
2017-08-17T16:29:32.908Z,25.20
2017-08-17T16:32:00.496Z,25.20
2017-08-17T16:34:28.018Z,25.20
2017-08-17T16:36:55.534Z,25.20
2017-08-17T16:39:23.082Z,25.20
2017-08-17T16:41:50.607Z,25.22
2017-08-17T16:44:18.201Z,25.22
2017-08-17T16:46:45.741Z,25.21
2017-08-17T16:49:13.257Z,25.21
2017-08-17T16:51:40.801Z,25.22
2017-08-17T16:54:08.318Z,25.22
2017-08-17T16:56:35.865Z,25.23
2017-08-17T16:59:03.381Z,25.24
2017-08-17T17:01:30.949Z,25.24
2017-08-17T17:03:58.473Z,25.24
2017-08-17T17:06:25.994Z,25.24
2017-08-17T17:08:53.553Z,25.23
2017-08-17T17:11:21.080Z,25.23
2017-08-17T17:13:48.621Z,25.25
2017-08-17T17:16:16.143Z,25.24
2017-08-17T17:18:43.729Z,25.25
2017-08-17T17:21:11.248Z,25.25
2017-08-17T17:23:38.764Z,25.24
2017-08-17T17:26:06.349Z,25.25
2017-08-17T17:28:33.857Z,25.26
2017-08-17T17:31:01.408Z,25.25
2017-08-17T17:33:29.226Z,25.26
2017-08-17T17:35:56.778Z,25.26
2017-08-17T17:38:24.292Z,25.26
2017-08-17T17:40:51.801Z,25.27
2017-08-17T17:43:19.350Z,25.30
2017-08-17T17:45:46.876Z,25.33
2017-08-17T17:48:14.606Z,25.36
2017-08-17T17:50:43.474Z,25.38
2017-08-17T17:53:11.461Z,25.42
2017-08-17T17:55:40.160Z,25.43
2017-08-17T17:58:07.788Z,25.45
2017-08-17T18:00:35.346Z,25.48
2017-08-17T18:03:02.866Z,25.47
2017-08-17T18:05:30.593Z,25.47
2017-08-17T18:07:58.103Z,25.48
2017-08-17T18:10:25.620Z,25.47
2017-08-17T18:12:53.175Z,25.48
2017-08-17T18:15:20.698Z,25.50
2017-08-17T18:17:48.271Z,25.54
2017-08-17T18:20:15.807Z,25.54
2017-08-17T18:22:43.330Z,25.53
2017-08-17T18:25:10.886Z,25.52
2017-08-17T18:27:38.411Z,25.53
2017-08-17T18:30:05.955Z,25.51
2017-08-17T18:32:33.482Z,25.50
2017-08-17T18:35:01.055Z,25.47
2017-08-17T18:37:28.579Z,25.48
2017-08-17T18:39:56.094Z,25.47
2017-08-17T18:42:23.651Z,25.45
2017-08-17T18:44:51.194Z,25.47
2017-08-17T18:47:18.739Z,25.47
2017-08-17T18:49:46.260Z,25.49
2017-08-17T18:52:13.812Z,25.48
2017-08-17T18:54:41.330Z,25.46
2017-08-17T18:57:08.901Z,25.47
2017-08-17T18:59:36.425Z,25.46
2017-08-17T19:02:03.944Z,25.46
2017-08-17T19:04:31.486Z,25.46
2017-08-17T19:06:59.015Z,25.45
2017-08-17T19:09:26.561Z,25.44
2017-08-17T19:11:54.079Z,25.47
2017-08-17T19:14:21.639Z,25.47
2017-08-17T19:16:49.161Z,25.48
2017-08-17T19:19:16.677Z,25.50
2017-08-17T19:21:44.237Z,25.50
2017-08-17T19:24:11.765Z,25.51
2017-08-17T19:26:39.321Z,25.52
2017-08-17T19:29:06.840Z,25.51
2017-08-17T19:31:34.485Z,25.52
2017-08-17T19:34:02.545Z,25.57
2017-08-17T19:36:30.505Z,25.59
2017-08-17T19:38:58.361Z,25.60
2017-08-17T19:41:26.490Z,25.58
2017-08-17T19:43:54.745Z,25.57
2017-08-17T19:46:22.779Z,25.55
2017-08-17T19:48:50.581Z,25.58
2017-08-17T19:51:18.534Z,25.59
2017-08-17T19:53:46.504Z,25.54
2017-08-17T19:56:15.040Z,25.52
2017-08-17T19:58:42.627Z,25.50
2017-08-17T20:01:10.176Z,25.51
2017-08-17T20:03:37.705Z,25.49
2017-08-17T20:06:05.278Z,25.46
2017-08-17T20:08:32.797Z,25.41
2017-08-17T20:11:00.315Z,25.40
2017-08-17T20:13:27.865Z,25.37
2017-08-17T20:15:55.384Z,25.35
2017-08-17T20:18:22.941Z,25.40
2017-08-17T20:20:50.460Z,25.40
2017-08-17T20:23:18.013Z,25.40
2017-08-17T20:25:45.794Z,25.48
2017-08-17T20:28:13.386Z,25.51
2017-08-17T20:30:41.031Z,25.54
2017-08-17T20:33:09.111Z,25.56
2017-08-17T20:35:37.680Z,25.56
2017-08-17T20:38:05.552Z,25.61
2017-08-17T20:40:33.834Z,25.59
2017-08-17T20:43:01.410Z,25.63
2017-08-17T20:45:29.615Z,25.62
2017-08-17T20:47:57.736Z,25.63
2017-08-17T20:50:25.909Z,25.66
2017-08-17T20:52:53.504Z,25.64
2017-08-17T20:55:21.542Z,25.65
2017-08-17T20:57:49.112Z,25.69
2017-08-17T21:02:51.465Z,25.68
2017-08-17T21:05:19.155Z,25.66
2017-08-17T21:07:46.919Z,25.66
2017-08-17T21:10:14.811Z,25.64
2017-08-17T21:12:43.021Z,25.66
2017-08-17T21:15:11.009Z,25.71
2017-08-17T21:17:38.799Z,25.73
2017-08-17T21:20:06.404Z,25.77
2017-08-17T21:22:34.117Z,25.67
2017-08-17T21:25:01.816Z,25.55
2017-08-17T21:27:29.637Z,25.52
2017-08-17T21:29:57.455Z,25.51
2017-08-17T21:32:25.468Z,25.46
2017-08-17T21:34:55.246Z,25.41
2017-08-17T21:37:23.828Z,25.35
2017-08-17T21:39:51.376Z,25.37
2017-08-17T21:42:18.909Z,25.34
2017-08-17T21:44:46.473Z,25.36
2017-08-17T21:47:14.068Z,25.33
2017-08-17T21:49:41.621Z,25.30
2017-08-17T21:52:09.137Z,25.27
2017-08-17T21:54:36.706Z,25.23
2017-08-17T21:57:04.234Z,25.22
2017-08-17T21:59:31.750Z,25.20
2017-08-17T22:01:59.312Z,25.20
2017-08-17T22:04:26.834Z,25.23
2017-08-17T22:06:54.384Z,25.23
2017-08-17T22:09:21.906Z,25.20
2017-08-17T22:11:49.564Z,25.15
2017-08-17T22:14:17.086Z,25.17
2017-08-17T22:16:44.682Z,25.08
2017-08-17T22:19:12.276Z,25.15
2017-08-17T22:21:39.794Z,25.12
2017-08-17T22:24:07.355Z,25.13
2017-08-17T22:26:34.949Z,25.09
2017-08-17T22:29:02.508Z,25.10
2017-08-17T22:31:30.023Z,25.12
2017-08-17T22:33:57.593Z,25.09
2017-08-17T22:36:25.210Z,25.09
2017-08-17T22:38:52.738Z,25.03
2017-08-17T22:41:20.334Z,25.04
2017-08-17T22:43:47.888Z,24.96
2017-08-17T22:46:15.449Z,24.92
2017-08-17T22:48:42.961Z,24.90
2017-08-17T22:51:10.526Z,24.93
2017-08-17T22:53:38.041Z,24.93
2017-08-17T22:56:05.558Z,24.93
2017-08-17T22:58:33.121Z,24.93
2017-08-17T23:01:00.647Z,24.90
2017-08-17T23:03:28.201Z,24.91
2017-08-17T23:05:55.724Z,24.89
2017-08-17T23:08:23.276Z,24.88
2017-08-17T23:10:50.792Z,24.90
2017-08-17T23:13:18.333Z,24.90
2017-08-17T23:15:45.880Z,24.93
2017-08-17T23:18:13.405Z,24.89
2017-08-17T23:20:40.974Z,24.91
2017-08-17T23:23:08.512Z,24.87
2017-08-17T23:25:36.078Z,24.87
2017-08-17T23:28:03.593Z,24.89
2017-08-17T23:30:31.125Z,24.91
2017-08-17T23:32:58.681Z,24.91
2017-08-17T23:35:26.239Z,24.91
2017-08-17T23:37:53.802Z,24.88
2017-08-17T23:40:21.318Z,24.84
2017-08-17T23:42:48.850Z,24.84
2017-08-17T23:45:16.408Z,24.87
2017-08-17T23:47:43.932Z,24.89
2017-08-17T23:50:11.495Z,24.91
2017-08-17T23:52:39.009Z,24.89
2017-08-17T23:55:06.573Z,24.87
2017-08-17T23:57:34.110Z,24.86
